createdAt,value
2019-04-05T00:01:11.849Z,13.40
2019-04-05T00:03:42.127Z,13.30
2019-04-05T00:06:12.327Z,13.30
2019-04-05T00:08:42.739Z,13.30
2019-04-05T00:11:12.981Z,13.30
2019-04-05T00:13:43.305Z,13.20
2019-04-05T00:16:13.624Z,13.20
2019-04-05T00:18:43.835Z,13.20
2019-04-05T00:21:14.043Z,13.10
2019-04-05T00:23:44.287Z,13.10
2019-04-05T00:26:14.492Z,13.10
2019-04-05T00:28:44.696Z,13.20
2019-04-05T00:31:14.930Z,13.10
2019-04-05T00:33:45.205Z,13.10
2019-04-05T00:36:15.469Z,13.10
2019-04-05T00:38:45.721Z,13.10
2019-04-05T00:41:17.468Z,13.10
2019-04-05T00:43:47.837Z,13.00
2019-04-05T00:46:18.098Z,13.00
2019-04-05T00:48:48.615Z,12.90
2019-04-05T00:51:18.858Z,12.90
2019-04-05T00:53:49.070Z,12.90
2019-04-05T00:56:19.263Z,12.90
2019-04-05T00:58:49.723Z,12.90
2019-04-05T01:01:19.916Z,12.80
2019-04-05T01:03:50.170Z,12.80
2019-04-05T01:06:20.361Z,12.80
2019-04-05T01:08:50.585Z,12.80
2019-04-05T01:11:20.814Z,12.80
2019-04-05T01:13:51.020Z,12.70
2019-04-05T01:16:21.250Z,12.70
2019-04-05T01:18:51.566Z,12.70
2019-04-05T01:21:24.665Z,12.60
2019-04-05T01:23:54.873Z,12.60
2019-04-05T01:26:25.101Z,12.60
2019-04-05T01:28:55.279Z,12.60
2019-04-05T01:31:25.541Z,12.60
2019-04-05T01:33:55.800Z,12.60
2019-04-05T01:36:26.263Z,12.60
2019-04-05T01:38:56.587Z,12.60
2019-04-05T01:41:26.932Z,12.60
2019-04-05T01:43:58.713Z,12.60
2019-04-05T01:46:28.936Z,12.50
2019-04-05T01:48:59.135Z,12.50
2019-04-05T01:51:29.368Z,12.40
2019-04-05T01:53:59.645Z,12.40
2019-04-05T01:56:29.844Z,12.40
2019-04-05T01:59:00.095Z,12.40
2019-04-05T02:01:30.306Z,12.40
2019-04-05T02:04:01.679Z,12.30
2019-04-05T02:06:31.953Z,12.30
2019-04-05T02:09:02.209Z,12.30
2019-04-05T02:11:32.872Z,12.30
2019-04-05T02:14:03.090Z,12.30
2019-04-05T02:16:33.310Z,12.30
2019-04-05T02:19:03.704Z,12.20
2019-04-05T02:21:33.929Z,12.20
2019-04-05T02:24:04.231Z,12.30
2019-04-05T02:26:34.460Z,12.20
2019-04-05T02:29:04.693Z,12.20
2019-04-05T02:31:34.897Z,12.10
2019-04-05T02:34:05.120Z,12.20
2019-04-05T02:36:35.427Z,12.20
2019-04-05T02:39:06.720Z,12.20
2019-04-05T02:41:37.152Z,12.20
2019-04-05T02:44:07.456Z,12.30
2019-04-05T02:46:37.677Z,12.30
2019-04-05T02:49:09.548Z,12.40
2019-04-05T02:51:39.768Z,12.30
2019-04-05T02:54:11.613Z,12.30
2019-04-05T02:56:41.820Z,12.30
2019-04-05T02:59:12.756Z,12.30
2019-04-05T03:01:43.020Z,12.30
2019-04-05T03:04:13.257Z,12.30
2019-04-05T03:06:43.480Z,12.30
2019-04-05T03:09:13.761Z,12.40
2019-04-05T03:11:43.963Z,12.40
2019-04-05T03:14:14.517Z,12.40
2019-04-05T03:16:45.561Z,12.40
2019-04-05T03:19:17.747Z,12.40
2019-04-05T03:21:51.001Z,12.40
2019-04-05T03:24:23.096Z,12.30
2019-04-05T03:26:56.446Z,12.30
2019-04-05T03:29:28.453Z,12.30
2019-04-05T03:31:58.684Z,12.30
2019-04-05T03:34:28.946Z,12.30
2019-04-05T03:36:59.935Z,12.20
2019-04-05T03:39:30.127Z,12.20
2019-04-05T03:42:00.542Z,12.20
2019-04-05T03:44:32.394Z,12.20
2019-04-05T03:47:02.816Z,12.10
2019-04-05T03:49:33.006Z,12.10
2019-04-05T03:52:04.553Z,12.00
2019-04-05T03:54:35.068Z,12.00
2019-04-05T03:57:05.265Z,11.90
2019-04-05T03:59:35.588Z,12.00
2019-04-05T04:02:05.787Z,12.00
2019-04-05T04:04:37.854Z,11.90
2019-04-05T04:07:09.630Z,11.90
2019-04-05T04:09:39.885Z,11.80
2019-04-05T04:12:10.078Z,11.80
2019-04-05T04:14:40.343Z,11.70
2019-04-05T04:17:12.635Z,11.70
2019-04-05T04:19:42.576Z,11.70
2019-04-05T04:22:16.055Z,11.70
2019-04-05T04:24:46.461Z,11.70
2019-04-05T04:27:16.703Z,11.70
2019-04-05T04:29:47.208Z,11.70
2019-04-05T04:32:17.552Z,11.70
2019-04-05T04:34:48.057Z,11.70
2019-04-05T04:37:18.333Z,11.70
2019-04-05T04:39:48.711Z,11.70
2019-04-05T04:42:20.601Z,11.70
2019-04-05T04:44:50.874Z,11.80
2019-04-05T04:47:27.015Z,11.80
2019-04-05T04:49:53.498Z,11.90
2019-04-05T04:52:23.696Z,11.90
2019-04-05T04:54:54.044Z,11.90
2019-04-05T04:57:24.324Z,12.00
2019-04-05T04:59:54.788Z,12.10
2019-04-05T05:02:25.035Z,12.10
2019-04-05T05:04:55.290Z,12.20
2019-04-05T05:07:25.605Z,12.30
2019-04-05T05:09:57.470Z,12.40
2019-04-05T05:12:27.705Z,12.40
2019-04-05T05:14:59.483Z,12.50
2019-04-05T05:17:38.290Z,12.60
2019-04-05T05:20:01.778Z,12.60
2019-04-05T05:22:32.002Z,12.80
2019-04-05T05:25:02.239Z,12.90
2019-04-05T05:27:32.478Z,13.10
2019-04-05T05:30:02.800Z,13.20
2019-04-05T05:32:33.108Z,13.20
2019-04-05T05:35:03.678Z,13.40
2019-04-05T05:37:35.560Z,13.60
2019-04-05T05:40:08.198Z,13.90
2019-04-05T05:42:38.543Z,14.10
2019-04-05T05:45:08.756Z,14.30
2019-04-05T05:47:51.273Z,14.40
2019-04-05T05:50:10.916Z,14.50
2019-04-05T05:52:43.546Z,14.60
2019-04-05T05:55:13.742Z,14.70
2019-04-05T05:57:45.543Z,14.90
2019-04-05T06:00:17.277Z,15.10
2019-04-05T06:02:48.591Z,15.20
2019-04-05T06:05:19.122Z,15.40
2019-04-05T06:07:49.475Z,15.70
2019-04-05T06:10:19.818Z,16.10
2019-04-05T06:12:50.345Z,16.50
2019-04-05T06:15:20.549Z,17.20
2019-04-05T06:18:04.111Z,17.80
2019-04-05T06:20:24.282Z,18.20
2019-04-05T06:22:54.662Z,19.00
2019-04-05T06:25:24.971Z,19.80
2019-04-05T06:27:55.254Z,20.20
2019-04-05T06:30:28.619Z,20.70
2019-04-05T06:32:57.477Z,21.20
2019-04-05T06:35:27.757Z,21.70
2019-04-05T06:37:58.046Z,22.50
2019-04-05T06:40:40.068Z,22.70
2019-04-05T06:43:00.327Z,23.00
2019-04-05T06:45:30.599Z,23.70
2019-04-05T06:48:00.835Z,24.80
2019-04-05T06:50:31.927Z,25.50
2019-04-05T06:53:02.189Z,26.50
2019-04-05T06:55:34.027Z,26.40
2019-04-05T06:58:05.826Z,26.80
2019-04-05T07:00:36.041Z,26.90
2019-04-05T07:03:06.339Z,26.80
2019-04-05T07:05:36.587Z,27.30
2019-04-05T07:08:06.941Z,27.80
2019-04-05T07:10:37.135Z,28.10
2019-04-05T07:13:07.405Z,28.50
2019-04-05T07:15:37.847Z,29.40
2019-04-05T07:18:08.072Z,29.20
2019-04-05T07:20:39.843Z,28.80
2019-04-05T07:23:11.719Z,28.50
2019-04-05T07:25:41.919Z,28.60
2019-04-05T07:28:12.232Z,28.90
2019-04-05T07:30:42.437Z,29.30
2019-04-05T07:33:12.782Z,29.60
2019-04-05T07:35:43.071Z,30.30
2019-04-05T07:38:13.259Z,30.50
2019-04-05T07:40:43.495Z,30.70
2019-04-05T07:43:13.694Z,31.00
2019-04-05T07:45:45.982Z,31.00
2019-04-05T07:48:15.872Z,31.50
2019-04-05T07:50:46.224Z,31.20
2019-04-05T07:53:16.588Z,30.50
2019-04-05T07:55:46.953Z,30.10
2019-04-05T07:58:18.002Z,29.10
2019-04-05T08:00:53.897Z,29.20
2019-04-05T08:03:24.501Z,29.40
2019-04-05T08:05:54.865Z,29.30
2019-04-05T08:08:34.505Z,29.50
2019-04-05T08:11:07.180Z,29.50
2019-04-05T08:13:38.425Z,28.90
2019-04-05T08:16:10.240Z,27.80
2019-04-05T08:18:40.426Z,26.80
2019-04-05T08:21:10.639Z,27.00
2019-04-05T08:23:40.901Z,27.40
2019-04-05T08:26:11.219Z,29.00
2019-04-05T08:28:41.513Z,30.50
2019-04-05T08:31:14.422Z,32.00
2019-04-05T08:33:43.687Z,33.10
2019-04-05T08:36:14.191Z,32.70
2019-04-05T08:38:44.382Z,32.30
2019-04-05T08:41:14.809Z,29.60
2019-04-05T08:43:47.187Z,27.40
2019-04-05T08:46:18.712Z,25.90
2019-04-05T08:48:48.977Z,24.50
2019-04-05T08:51:19.222Z,23.70
2019-04-05T08:53:49.412Z,23.60
2019-04-05T08:56:19.639Z,24.20
2019-04-05T08:58:49.851Z,25.90
2019-04-05T09:01:20.225Z,25.40
2019-04-05T09:03:50.507Z,24.50
2019-04-05T09:06:22.357Z,23.70
2019-04-05T09:08:52.678Z,23.10
2019-04-05T09:11:24.594Z,22.60
2019-04-05T09:13:54.781Z,22.20
2019-04-05T09:16:25.122Z,21.90
2019-04-05T09:18:55.301Z,21.70
2019-04-05T09:21:25.580Z,21.50
2019-04-05T09:23:59.219Z,21.40
2019-04-05T09:26:29.300Z,22.00
2019-04-05T09:28:59.565Z,22.00
2019-04-05T09:31:29.789Z,21.80
2019-04-05T09:34:00.248Z,21.90
2019-04-05T09:36:32.006Z,21.80
2019-04-05T09:39:02.243Z,21.60
2019-04-05T09:41:32.425Z,21.40
2019-04-05T09:44:02.643Z,21.40
2019-04-05T09:46:45.673Z,21.50
2019-04-05T09:49:05.592Z,21.90
2019-04-05T09:51:35.942Z,22.20
2019-04-05T09:54:06.121Z,22.20
2019-04-05T09:56:36.339Z,22.20
2019-04-05T09:59:08.140Z,22.10
2019-04-05T10:01:38.397Z,22.10
2019-04-05T10:04:08.650Z,21.80
2019-04-05T10:06:38.878Z,21.60
2019-04-05T10:09:09.258Z,21.50
2019-04-05T10:11:39.556Z,21.50
2019-04-05T10:14:09.825Z,21.50
2019-04-05T10:16:40.055Z,21.60
2019-04-05T10:19:10.276Z,21.50
2019-04-05T10:21:40.493Z,21.10
2019-04-05T10:24:10.689Z,20.80
2019-04-05T10:26:40.975Z,20.70
2019-04-05T10:29:11.255Z,20.60
2019-04-05T10:31:41.596Z,20.40
2019-04-05T10:34:11.833Z,20.40
2019-04-05T10:36:42.113Z,20.40
2019-04-05T10:39:12.354Z,20.60
2019-04-05T10:41:42.645Z,20.90
2019-04-05T10:44:14.518Z,21.20
2019-04-05T10:46:44.842Z,21.30
2019-04-05T10:49:16.869Z,21.40
2019-04-05T10:51:48.895Z,21.30
2019-04-05T10:54:19.147Z,21.20
2019-04-05T10:56:49.371Z,21.10
2019-04-05T10:59:19.585Z,20.90
2019-04-05T11:01:49.823Z,20.60
2019-04-05T11:04:20.079Z,20.40
2019-04-05T11:06:50.403Z,20.20
2019-04-05T11:09:20.819Z,20.10
2019-04-05T11:11:51.063Z,20.20
2019-04-05T11:14:22.916Z,20.50
2019-04-05T11:16:58.777Z,20.80
2019-04-05T11:19:26.686Z,21.10
2019-04-05T11:21:56.944Z,21.30
2019-04-05T11:24:27.177Z,21.30
2019-04-05T11:26:57.459Z,21.10
2019-04-05T11:29:27.702Z,20.90
2019-04-05T11:31:59.497Z,20.90
2019-04-05T11:34:29.711Z,21.00
2019-04-05T11:37:02.666Z,21.10
2019-04-05T11:39:31.961Z,21.20
2019-04-05T11:42:02.304Z,21.30
2019-04-05T11:44:33.100Z,21.50
2019-04-05T11:47:03.758Z,21.60
2019-04-05T11:49:34.515Z,21.60
2019-04-05T11:52:05.667Z,21.90
2019-04-05T11:54:35.945Z,22.00
2019-04-05T11:57:06.289Z,21.90
2019-04-05T11:59:36.504Z,21.80
2019-04-05T12:02:08.293Z,21.60
2019-04-05T12:04:38.697Z,21.60
2019-04-05T12:07:08.961Z,21.40
2019-04-05T12:09:39.148Z,21.30
2019-04-05T12:12:09.465Z,21.30
2019-04-05T12:14:39.698Z,21.30
2019-04-05T12:17:09.925Z,21.30
2019-04-05T12:19:40.183Z,21.20
2019-04-05T12:22:10.669Z,21.20
2019-04-05T12:24:40.933Z,21.10
2019-04-05T12:27:11.185Z,21.10
2019-04-05T12:29:41.545Z,21.00
2019-04-05T12:32:13.267Z,21.00
2019-04-05T12:34:45.323Z,21.00
2019-04-05T12:37:15.863Z,20.90
2019-04-05T12:39:46.209Z,20.80
2019-04-05T12:42:18.043Z,20.70
2019-04-05T12:44:48.450Z,20.70
2019-04-05T12:47:18.649Z,20.70
2019-04-05T12:49:48.907Z,20.70
2019-04-05T12:52:22.960Z,20.60
2019-04-05T12:54:54.820Z,20.50
2019-04-05T12:57:25.732Z,20.50
2019-04-05T12:59:58.789Z,20.50
2019-04-05T13:02:33.876Z,20.50
2019-04-05T13:05:03.318Z,20.50
2019-04-05T13:07:35.183Z,20.60
2019-04-05T13:10:07.307Z,20.60
2019-04-05T13:12:37.557Z,20.50
2019-04-05T13:15:13.731Z,20.50
2019-04-05T13:17:39.828Z,20.40
2019-04-05T13:20:10.149Z,20.40
2019-04-05T13:22:40.345Z,20.40
2019-04-05T13:25:11.461Z,20.40
2019-04-05T13:27:42.209Z,20.30
2019-04-05T13:30:12.495Z,20.10
2019-04-05T13:32:42.780Z,20.00
2019-04-05T13:35:16.543Z,20.00
2019-04-05T13:37:45.723Z,19.70
2019-04-05T13:40:16.188Z,19.30
2019-04-05T13:42:46.427Z,19.00
2019-04-05T13:45:16.742Z,18.80
2019-04-05T13:47:47.920Z,18.50
2019-04-05T13:50:19.693Z,18.40
2019-04-05T13:52:49.994Z,18.30
2019-04-05T13:55:20.237Z,18.30
2019-04-05T13:57:50.851Z,18.20
2019-04-05T14:00:21.329Z,18.30
2019-04-05T14:02:51.570Z,18.30
2019-04-05T14:05:22.701Z,18.20
2019-04-05T14:08:09.165Z,18.10
2019-04-05T14:10:25.085Z,18.10
2019-04-05T14:12:55.276Z,17.90
2019-04-05T14:15:25.505Z,17.70
2019-04-05T14:17:55.752Z,17.30
2019-04-05T14:20:26.388Z,17.00
2019-04-05T14:22:56.619Z,16.80
2019-04-05T14:25:29.959Z,16.70
2019-04-05T14:27:58.846Z,16.60
2019-04-05T14:30:32.446Z,16.60
2019-04-05T14:33:01.273Z,16.60
2019-04-05T14:35:31.451Z,16.50
2019-04-05T14:38:01.669Z,16.40
2019-04-05T14:40:33.146Z,16.30
2019-04-05T14:43:03.657Z,16.30
2019-04-05T14:45:35.960Z,16.40
2019-04-05T14:48:06.349Z,16.40
2019-04-05T14:50:36.644Z,16.40
2019-04-05T14:53:06.970Z,16.50
2019-04-05T14:55:37.283Z,16.50
2019-04-05T14:58:10.332Z,16.50
2019-04-05T15:00:39.473Z,16.40
2019-04-05T15:03:09.796Z,16.40
2019-04-05T15:05:40.163Z,16.30
2019-04-05T15:08:10.400Z,16.20
2019-04-05T15:10:40.707Z,16.10
2019-04-05T15:13:10.933Z,15.90
2019-04-05T15:15:41.174Z,15.70
2019-04-05T15:18:12.956Z,15.60
2019-04-05T15:20:43.248Z,15.60
2019-04-05T15:23:14.161Z,15.50
2019-04-05T15:25:44.988Z,15.60
2019-04-05T15:28:17.671Z,15.60
2019-04-05T15:30:49.458Z,15.70
2019-04-05T15:33:19.818Z,15.70
2019-04-05T15:35:50.007Z,15.70
2019-04-05T15:38:20.509Z,15.60
2019-04-05T15:40:50.819Z,15.50
2019-04-05T15:43:21.011Z,15.40
2019-04-05T15:45:51.269Z,15.30
2019-04-05T15:48:22.790Z,15.20
2019-04-05T15:50:57.688Z,15.10
2019-04-05T15:53:31.506Z,15.00
2019-04-05T15:56:04.028Z,14.90
2019-04-05T15:58:34.066Z,14.80
2019-04-05T16:01:06.398Z,14.80
2019-04-05T16:03:37.052Z,14.90
2019-04-05T16:06:07.350Z,14.90
2019-04-05T16:08:39.385Z,15.00
2019-04-05T16:11:09.593Z,15.00
2019-04-05T16:13:39.921Z,15.00
2019-04-05T16:16:11.488Z,14.90
2019-04-05T16:18:41.690Z,14.90
2019-04-05T16:21:13.538Z,14.90
2019-04-05T16:23:43.765Z,14.80
2019-04-05T16:26:15.537Z,14.80
2019-04-05T16:28:45.763Z,14.80
2019-04-05T16:31:17.513Z,14.80
2019-04-05T16:33:47.838Z,14.80
2019-04-05T16:36:18.034Z,14.80
2019-04-05T16:38:48.259Z,14.70
2019-04-05T16:41:18.467Z,14.80
2019-04-05T16:43:48.694Z,14.80
2019-04-05T16:46:18.915Z,14.80
2019-04-05T16:48:49.388Z,14.80
2019-04-05T16:51:19.622Z,14.80
2019-04-05T16:54:00.484Z,14.70
2019-04-05T16:56:30.764Z,14.60
2019-04-05T16:59:01.050Z,14.50
2019-04-05T17:01:31.234Z,14.40
2019-04-05T17:04:01.480Z,14.30
2019-04-05T17:06:33.329Z,14.30
2019-04-05T17:09:05.164Z,14.20
2019-04-05T17:11:35.405Z,14.20
2019-04-05T17:14:05.612Z,14.20
2019-04-05T17:16:35.844Z,14.20
2019-04-05T17:19:06.057Z,14.10
2019-04-05T17:21:38.026Z,14.20
2019-04-05T17:24:08.282Z,14.10
2019-04-05T17:26:38.521Z,14.10
2019-04-05T17:29:08.805Z,14.10
2019-04-05T17:31:39.064Z,14.10
2019-04-05T17:34:09.364Z,14.00
2019-04-05T17:36:39.643Z,14.00
2019-04-05T17:39:09.959Z,14.00
2019-04-05T17:41:40.224Z,14.10
2019-04-05T17:44:10.476Z,14.10
2019-04-05T17:46:42.421Z,14.10
2019-04-05T17:49:12.645Z,14.10
2019-04-05T17:51:42.853Z,14.10
2019-04-05T17:54:13.096Z,14.10
2019-04-05T17:56:43.302Z,14.10
2019-04-05T17:59:13.529Z,14.10
2019-04-05T18:01:43.918Z,14.10
2019-04-05T18:04:14.169Z,14.20
2019-04-05T18:06:44.401Z,14.20
2019-04-05T18:09:14.622Z,14.10
2019-04-05T18:11:44.835Z,14.10
2019-04-05T18:14:15.087Z,14.10
2019-04-05T18:16:45.368Z,14.10
2019-04-05T18:19:15.587Z,14.20
2019-04-05T18:21:45.846Z,14.30
2019-04-05T18:24:16.385Z,14.30
2019-04-05T18:26:46.682Z,14.30
2019-04-05T18:29:17.020Z,14.20
2019-04-05T18:31:47.226Z,14.10
2019-04-05T18:34:17.516Z,14.00
2019-04-05T18:36:48.440Z,14.00
2019-04-05T18:39:18.681Z,14.10
2019-04-05T18:41:48.907Z,14.10
2019-04-05T18:44:19.303Z,14.10
2019-04-05T18:46:49.570Z,14.10
2019-04-05T18:49:19.832Z,14.20
2019-04-05T18:51:50.065Z,14.20
2019-04-05T18:54:20.253Z,14.10
2019-04-05T18:56:50.490Z,14.10
2019-04-05T18:59:20.883Z,14.10
2019-04-05T19:01:51.083Z,14.10
2019-04-05T19:04:21.430Z,14.20
2019-04-05T19:06:51.762Z,14.20
2019-04-05T19:09:23.540Z,14.20
2019-04-05T19:11:53.761Z,14.30
2019-04-05T19:14:24.083Z,14.20
2019-04-05T19:16:55.862Z,14.20
2019-04-05T19:19:26.057Z,14.20
2019-04-05T19:21:56.425Z,14.10
2019-04-05T19:24:26.646Z,14.20
2019-04-05T19:26:57.022Z,14.20
2019-04-05T19:29:28.369Z,14.20
2019-04-05T19:49:47.541Z,14.20
2019-04-05T19:52:19.368Z,14.30
2019-04-05T19:54:49.924Z,14.20
2019-04-05T19:57:20.169Z,14.20
2019-04-05T19:59:52.896Z,14.30
2019-04-05T20:02:23.196Z,14.30
2019-04-05T20:04:53.393Z,14.20
2019-04-05T20:07:23.614Z,14.30
2019-04-05T20:09:53.848Z,14.30
2019-04-05T20:12:24.050Z,14.30
2019-04-05T20:14:54.298Z,14.30
2019-04-05T20:17:24.697Z,14.30
2019-04-05T20:19:55.833Z,14.30
2019-04-05T20:22:26.145Z,14.30
2019-04-05T20:24:56.340Z,14.30
2019-04-05T20:27:26.561Z,14.30
2019-04-05T20:29:56.854Z,14.30
2019-04-05T20:32:27.064Z,14.30
2019-04-05T20:34:57.288Z,14.30
2019-04-05T20:37:27.538Z,14.30
2019-04-05T20:39:57.815Z,14.30
2019-04-05T20:42:28.199Z,14.20
2019-04-05T20:44:58.462Z,14.20
2019-04-05T20:47:28.758Z,14.20
2019-04-05T20:49:58.962Z,14.20
2019-04-05T20:52:29.223Z,14.20
2019-04-05T20:55:00.637Z,14.20
2019-04-05T20:57:30.890Z,14.20
2019-04-05T21:00:01.092Z,14.10
2019-04-05T21:02:31.312Z,14.10
2019-04-05T21:05:01.564Z,14.00
2019-04-05T21:07:31.826Z,13.90
2019-04-05T21:10:02.313Z,13.90
2019-04-05T21:12:32.578Z,13.90
2019-04-05T21:15:02.854Z,13.90
2019-04-05T21:17:33.073Z,13.90
2019-04-05T21:20:03.272Z,13.90
2019-04-05T21:22:33.815Z,13.80
2019-04-05T21:25:05.618Z,13.80
2019-04-05T21:27:37.411Z,13.80
2019-04-05T21:30:08.078Z,13.70
2019-04-05T21:32:38.695Z,13.70
2019-04-05T21:35:08.893Z,13.60
2019-04-05T21:37:39.444Z,13.60
2019-04-05T21:40:09.946Z,13.40
2019-04-05T21:42:40.150Z,13.40
2019-04-05T21:45:10.422Z,13.40
2019-04-05T21:47:40.636Z,13.30
2019-04-05T21:50:10.853Z,13.40
2019-04-05T21:52:41.066Z,13.40
2019-04-05T21:55:11.290Z,13.60
2019-04-05T21:57:41.601Z,13.60
2019-04-05T22:00:14.980Z,13.60
2019-04-05T22:02:45.225Z,13.70
2019-04-05T22:05:15.422Z,13.70
2019-04-05T22:07:45.657Z,13.70
2019-04-05T22:10:16.073Z,13.70
2019-04-05T22:12:47.858Z,13.70
2019-04-05T22:15:19.661Z,13.70
2019-04-05T22:17:49.877Z,13.70
2019-04-05T22:20:20.597Z,13.70
2019-04-05T22:22:52.581Z,13.50
2019-04-05T22:25:22.833Z,13.50
2019-04-05T22:27:53.079Z,13.40
2019-04-05T22:30:23.347Z,13.30
2019-04-05T22:32:53.546Z,13.30
2019-04-05T22:35:23.873Z,13.10
2019-04-05T22:37:55.643Z,13.00
2019-04-05T22:40:25.893Z,13.00
2019-04-05T22:42:57.742Z,12.90
2019-04-05T22:45:27.974Z,13.00
2019-04-05T22:47:58.173Z,13.00
2019-04-05T22:50:28.667Z,13.10
2019-04-05T22:52:58.912Z,13.10
2019-04-05T22:55:29.106Z,13.00
2019-04-05T22:57:59.312Z,13.00
2019-04-05T23:00:29.543Z,13.00
2019-04-05T23:03:01.397Z,13.10
2019-04-05T23:05:31.694Z,13.10
2019-04-05T23:08:01.967Z,12.90
2019-04-05T23:10:32.291Z,12.80
2019-04-05T23:13:02.509Z,12.70
2019-04-05T23:15:32.779Z,12.50
2019-04-05T23:18:04.684Z,12.40
2019-04-05T23:20:34.915Z,12.40
2019-04-05T23:23:05.137Z,12.30
2019-04-05T23:25:35.322Z,12.30
2019-04-05T23:28:05.508Z,12.20
2019-04-05T23:30:35.754Z,12.20
2019-04-05T23:33:06.117Z,12.20
2019-04-05T23:35:36.318Z,12.20
2019-04-05T23:38:06.577Z,12.30
2019-04-05T23:40:37.607Z,12.30
2019-04-05T23:43:07.930Z,12.20
2019-04-05T23:45:38.227Z,12.20
2019-04-05T23:48:08.491Z,12.20
2019-04-05T23:50:38.706Z,12.10
2019-04-05T23:53:08.944Z,12.00
2019-04-05T23:55:39.148Z,12.00
2019-04-05T23:58:09.350Z,12.00
